sensor_id;sensor_type;location;lat;lon;timestamp;temperature;humidity
66190;DHT22;52992;52.084;5.412;2022-10-16T00:01:09;17.60;62.70
66190;DHT22;52992;52.084;5.412;2022-10-16T00:03:41;17.60;62.70
66190;DHT22;52992;52.084;5.412;2022-10-16T00:06:10;17.60;62.60
66190;DHT22;52992;52.084;5.412;2022-10-16T00:08:38;17.50;62.40
66190;DHT22;52992;52.084;5.412;2022-10-16T00:11:08;17.60;62.40
66190;DHT22;52992;52.084;5.412;2022-10-16T00:13:37;17.50;62.40
66190;DHT22;52992;52.084;5.412;2022-10-16T00:16:05;17.50;62.50
66190;DHT22;52992;52.084;5.412;2022-10-16T00:18:32;17.50;62.70
66190;DHT22;52992;52.084;5.412;2022-10-16T00:21:14;17.50;62.60
66190;DHT22;52992;52.084;5.412;2022-10-16T00:23:42;17.50;62.60
66190;DHT22;52992;52.084;5.412;2022-10-16T00:26:11;17.50;62.50
66190;DHT22;52992;52.084;5.412;2022-10-16T00:28:39;17.50;62.70
66190;DHT22;52992;52.084;5.412;2022-10-16T00:31:08;17.50;62.50
66190;DHT22;52992;52.084;5.412;2022-10-16T00:33:37;17.50;62.60
66190;DHT22;52992;52.084;5.412;2022-10-16T00:36:05;17.50;62.70
66190;DHT22;52992;52.084;5.412;2022-10-16T00:38:33;17.50;62.60
66190;DHT22;52992;52.084;5.412;2022-10-16T00:41:00;17.50;62.70
66190;DHT22;52992;52.084;5.412;2022-10-16T00:43:38;17.50;62.60
66190;DHT22;52992;52.084;5.412;2022-10-16T00:49:10;17.50;62.50
66190;DHT22;52992;52.084;5.412;2022-10-16T00:51:44;17.50;62.70
66190;DHT22;52992;52.084;5.412;2022-10-16T00:54:15;17.50;62.60
66190;DHT22;52992;52.084;5.412;2022-10-16T00:56:43;17.50;62.30
66190;DHT22;52992;52.084;5.412;2022-10-16T00:59:20;17.50;62.30
66190;DHT22;52992;52.084;5.412;2022-10-16T01:01:49;17.50;62.40
66190;DHT22;52992;52.084;5.412;2022-10-16T01:04:15;17.60;62.20
66190;DHT22;52992;52.084;5.412;2022-10-16T01:07:03;17.60;62.20
66190;DHT22;52992;52.084;5.412;2022-10-16T01:12:38;17.60;61.90
66190;DHT22;52992;52.084;5.412;2022-10-16T01:15:34;17.60;62.00
66190;DHT22;52992;52.084;5.412;2022-10-16T01:18:25;17.60;62.10
66190;DHT22;52992;52.084;5.412;2022-10-16T01:21:02;17.60;62.10
66190;DHT22;52992;52.084;5.412;2022-10-16T01:29:02;17.70;62.00
66190;DHT22;52992;52.084;5.412;2022-10-16T01:31:33;17.70;62.10
66190;DHT22;52992;52.084;5.412;2022-10-16T01:34:15;17.80;62.10
66190;DHT22;52992;52.084;5.412;2022-10-16T01:37:02;17.80;62.00
66190;DHT22;52992;52.084;5.412;2022-10-16T01:39:33;17.70;62.00
66190;DHT22;52992;52.084;5.412;2022-10-16T01:42:08;17.70;61.90
66190;DHT22;52992;52.084;5.412;2022-10-16T01:44:37;17.80;62.10
66190;DHT22;52992;52.084;5.412;2022-10-16T01:47:08;17.80;62.10
66190;DHT22;52992;52.084;5.412;2022-10-16T01:49:38;17.80;62.00
66190;DHT22;52992;52.084;5.412;2022-10-16T01:52:07;17.70;62.10
66190;DHT22;52992;52.084;5.412;2022-10-16T01:54:37;17.70;62.20
66190;DHT22;52992;52.084;5.412;2022-10-16T01:57:07;17.80;62.10
66190;DHT22;52992;52.084;5.412;2022-10-16T01:59:40;17.80;62.20
66190;DHT22;52992;52.084;5.412;2022-10-16T02:02:10;17.80;61.90
66190;DHT22;52992;52.084;5.412;2022-10-16T02:04:43;17.90;61.80
66190;DHT22;52992;52.084;5.412;2022-10-16T02:07:10;17.90;61.80
66190;DHT22;52992;52.084;5.412;2022-10-16T02:09:38;17.90;61.80
66190;DHT22;52992;52.084;5.412;2022-10-16T02:12:28;17.90;61.80
66190;DHT22;52992;52.084;5.412;2022-10-16T02:14:56;17.90;62.00
66190;DHT22;52992;52.084;5.412;2022-10-16T02:17:23;18.00;61.90
66190;DHT22;52992;52.084;5.412;2022-10-16T02:19:54;18.00;62.00
66190;DHT22;52992;52.084;5.412;2022-10-16T02:25:32;17.90;62.20
66190;DHT22;52992;52.084;5.412;2022-10-16T02:28:09;17.90;62.60
66190;DHT22;52992;52.084;5.412;2022-10-16T02:33:19;17.80;62.40
66190;DHT22;52992;52.084;5.412;2022-10-16T02:35:49;17.90;62.70
66190;DHT22;52992;52.084;5.412;2022-10-16T02:38:17;17.80;62.50
66190;DHT22;52992;52.084;5.412;2022-10-16T02:40:45;17.80;62.70
66190;DHT22;52992;52.084;5.412;2022-10-16T02:43:13;17.80;62.70
66190;DHT22;52992;52.084;5.412;2022-10-16T02:45:40;17.80;62.70
66190;DHT22;52992;52.084;5.412;2022-10-16T02:48:07;17.70;62.70
66190;DHT22;52992;52.084;5.412;2022-10-16T02:50:34;17.70;62.80
66190;DHT22;52992;52.084;5.412;2022-10-16T02:53:01;17.70;63.00
66190;DHT22;52992;52.084;5.412;2022-10-16T02:55:27;17.70;63.10
66190;DHT22;52992;52.084;5.412;2022-10-16T02:57:54;17.70;62.90
66190;DHT22;52992;52.084;5.412;2022-10-16T03:00:21;17.70;62.70
66190;DHT22;52992;52.084;5.412;2022-10-16T03:02:48;17.60;62.80
66190;DHT22;52992;52.084;5.412;2022-10-16T03:05:15;17.70;62.80
66190;DHT22;52992;52.084;5.412;2022-10-16T03:07:42;17.70;63.30
66190;DHT22;52992;52.084;5.412;2022-10-16T03:10:09;17.70;63.00
66190;DHT22;52992;52.084;5.412;2022-10-16T03:12:36;17.70;62.90
66190;DHT22;52992;52.084;5.412;2022-10-16T03:15:03;17.60;62.90
66190;DHT22;52992;52.084;5.412;2022-10-16T03:17:31;17.60;63.10
66190;DHT22;52992;52.084;5.412;2022-10-16T03:19:58;17.60;63.10
66190;DHT22;52992;52.084;5.412;2022-10-16T03:22:25;17.60;63.00
66190;DHT22;52992;52.084;5.412;2022-10-16T03:24:52;17.70;63.00
66190;DHT22;52992;52.084;5.412;2022-10-16T03:27:19;17.70;62.90
66190;DHT22;52992;52.084;5.412;2022-10-16T03:29:46;17.70;63.10
66190;DHT22;52992;52.084;5.412;2022-10-16T03:32:12;17.70;63.20
66190;DHT22;52992;52.084;5.412;2022-10-16T03:34:39;17.70;63.20
66190;DHT22;52992;52.084;5.412;2022-10-16T03:37:06;17.70;63.20
66190;DHT22;52992;52.084;5.412;2022-10-16T03:39:33;17.70;63.20
66190;DHT22;52992;52.084;5.412;2022-10-16T03:42:00;17.70;63.20
66190;DHT22;52992;52.084;5.412;2022-10-16T03:44:26;17.70;63.20
66190;DHT22;52992;52.084;5.412;2022-10-16T03:46:53;17.70;63.20
66190;DHT22;52992;52.084;5.412;2022-10-16T03:49:20;17.60;63.10
66190;DHT22;52992;52.084;5.412;2022-10-16T03:51:46;17.60;63.30
66190;DHT22;52992;52.084;5.412;2022-10-16T03:54:13;17.60;63.40
66190;DHT22;52992;52.084;5.412;2022-10-16T03:56:40;17.60;63.40
66190;DHT22;52992;52.084;5.412;2022-10-16T03:59:07;17.60;63.50
66190;DHT22;52992;52.084;5.412;2022-10-16T04:01:34;17.60;63.50
66190;DHT22;52992;52.084;5.412;2022-10-16T04:04:01;17.50;63.50
66190;DHT22;52992;52.084;5.412;2022-10-16T04:06:28;17.60;63.50
66190;DHT22;52992;52.084;5.412;2022-10-16T04:08:55;17.50;63.50
66190;DHT22;52992;52.084;5.412;2022-10-16T04:11:22;17.50;63.40
66190;DHT22;52992;52.084;5.412;2022-10-16T04:13:49;17.50;63.40
66190;DHT22;52992;52.084;5.412;2022-10-16T04:16:15;17.50;63.10
66190;DHT22;52992;52.084;5.412;2022-10-16T04:18:42;17.50;63.20
66190;DHT22;52992;52.084;5.412;2022-10-16T04:21:09;17.40;63.20
66190;DHT22;52992;52.084;5.412;2022-10-16T04:23:36;17.40;63.20
66190;DHT22;52992;52.084;5.412;2022-10-16T04:26:02;17.40;63.10
66190;DHT22;52992;52.084;5.412;2022-10-16T04:28:29;17.40;63.20
66190;DHT22;52992;52.084;5.412;2022-10-16T04:30:56;17.30;63.40
66190;DHT22;52992;52.084;5.412;2022-10-16T04:33:23;17.30;63.50
66190;DHT22;52992;52.084;5.412;2022-10-16T04:35:56;17.30;63.40
66190;DHT22;52992;52.084;5.412;2022-10-16T04:38:24;17.30;63.50
66190;DHT22;52992;52.084;5.412;2022-10-16T04:40:51;17.20;63.60
66190;DHT22;52992;52.084;5.412;2022-10-16T04:43:18;17.30;63.70
66190;DHT22;52992;52.084;5.412;2022-10-16T04:45:45;17.20;63.60
66190;DHT22;52992;52.084;5.412;2022-10-16T04:48:12;17.20;63.80
66190;DHT22;52992;52.084;5.412;2022-10-16T04:50:38;17.20;63.90
66190;DHT22;52992;52.084;5.412;2022-10-16T04:53:06;17.20;63.80
66190;DHT22;52992;52.084;5.412;2022-10-16T04:55:33;17.20;63.90
66190;DHT22;52992;52.084;5.412;2022-10-16T04:58:00;17.20;63.80
66190;DHT22;52992;52.084;5.412;2022-10-16T05:00:27;17.20;63.80
66190;DHT22;52992;52.084;5.412;2022-10-16T05:02:54;17.20;63.80
66190;DHT22;52992;52.084;5.412;2022-10-16T05:05:21;17.20;63.80
66190;DHT22;52992;52.084;5.412;2022-10-16T05:07:48;17.20;63.70
66190;DHT22;52992;52.084;5.412;2022-10-16T05:10:16;17.20;63.70
66190;DHT22;52992;52.084;5.412;2022-10-16T05:12:43;17.30;63.70
66190;DHT22;52992;52.084;5.412;2022-10-16T05:15:10;17.20;63.50
66190;DHT22;52992;52.084;5.412;2022-10-16T05:17:37;17.20;63.60
66190;DHT22;52992;52.084;5.412;2022-10-16T05:20:11;17.10;63.80
66190;DHT22;52992;52.084;5.412;2022-10-16T05:22:38;17.10;64.00
66190;DHT22;52992;52.084;5.412;2022-10-16T05:25:05;17.00;64.10
66190;DHT22;52992;52.084;5.412;2022-10-16T05:27:32;17.00;64.10
66190;DHT22;52992;52.084;5.412;2022-10-16T05:29:59;17.00;64.00
66190;DHT22;52992;52.084;5.412;2022-10-16T05:32:25;17.00;64.30
66190;DHT22;52992;52.084;5.412;2022-10-16T05:34:52;17.00;64.40
66190;DHT22;52992;52.084;5.412;2022-10-16T05:37:19;17.00;64.40
66190;DHT22;52992;52.084;5.412;2022-10-16T05:39:46;16.90;64.40
66190;DHT22;52992;52.084;5.412;2022-10-16T05:42:12;17.00;64.30
66190;DHT22;52992;52.084;5.412;2022-10-16T05:44:39;17.00;64.30
66190;DHT22;52992;52.084;5.412;2022-10-16T05:47:06;16.90;64.30
66190;DHT22;52992;52.084;5.412;2022-10-16T05:49:33;17.00;64.30
66190;DHT22;52992;52.084;5.412;2022-10-16T05:52:06;17.00;64.20
66190;DHT22;52992;52.084;5.412;2022-10-16T05:54:33;17.00;64.20
66190;DHT22;52992;52.084;5.412;2022-10-16T05:56:59;17.10;64.20
66190;DHT22;52992;52.084;5.412;2022-10-16T05:59:26;17.10;64.10
66190;DHT22;52992;52.084;5.412;2022-10-16T06:01:53;17.10;64.10
66190;DHT22;52992;52.084;5.412;2022-10-16T06:04:20;17.20;64.10
66190;DHT22;52992;52.084;5.412;2022-10-16T06:06:47;17.20;64.10
66190;DHT22;52992;52.084;5.412;2022-10-16T06:09:14;17.20;64.20
66190;DHT22;52992;52.084;5.412;2022-10-16T06:11:40;17.20;64.00
66190;DHT22;52992;52.084;5.412;2022-10-16T06:14:08;17.30;64.00
66190;DHT22;52992;52.084;5.412;2022-10-16T06:16:37;17.30;63.90
66190;DHT22;52992;52.084;5.412;2022-10-16T06:19:04;17.30;63.90
66190;DHT22;52992;52.084;5.412;2022-10-16T06:21:33;17.30;63.90
66190;DHT22;52992;52.084;5.412;2022-10-16T06:24:01;17.30;63.80
66190;DHT22;52992;52.084;5.412;2022-10-16T06:26:29;17.40;63.70
66190;DHT22;52992;52.084;5.412;2022-10-16T06:28:58;17.40;63.70
66190;DHT22;52992;52.084;5.412;2022-10-16T06:31:26;17.50;63.60
66190;DHT22;52992;52.084;5.412;2022-10-16T06:33:54;17.50;63.50
66190;DHT22;52992;52.084;5.412;2022-10-16T06:36:22;17.50;63.40
66190;DHT22;52992;52.084;5.412;2022-10-16T06:38:49;17.60;63.50
66190;DHT22;52992;52.084;5.412;2022-10-16T06:41:19;17.60;64.10
66190;DHT22;52992;52.084;5.412;2022-10-16T06:43:46;17.60;63.40
66190;DHT22;52992;52.084;5.412;2022-10-16T06:46:16;17.60;63.60
66190;DHT22;52992;52.084;5.412;2022-10-16T06:48:43;17.60;63.60
66190;DHT22;52992;52.084;5.412;2022-10-16T06:51:23;17.60;63.60
66190;DHT22;52992;52.084;5.412;2022-10-16T06:53:53;17.60;63.70
66190;DHT22;52992;52.084;5.412;2022-10-16T06:56:31;17.60;63.50
66190;DHT22;52992;52.084;5.412;2022-10-16T06:58:58;17.60;63.50
66190;DHT22;52992;52.084;5.412;2022-10-16T07:01:26;17.70;63.70
66190;DHT22;52992;52.084;5.412;2022-10-16T07:03:53;17.70;63.60
66190;DHT22;52992;52.084;5.412;2022-10-16T07:06:23;17.70;63.50
66190;DHT22;52992;52.084;5.412;2022-10-16T07:08:50;17.80;63.40
66190;DHT22;52992;52.084;5.412;2022-10-16T07:11:19;17.80;63.40
66190;DHT22;52992;52.084;5.412;2022-10-16T07:13:47;17.80;63.40
66190;DHT22;52992;52.084;5.412;2022-10-16T07:16:28;17.80;63.20
66190;DHT22;52992;52.084;5.412;2022-10-16T07:18:56;17.90;63.50
66190;DHT22;52992;52.084;5.412;2022-10-16T07:21:32;17.80;63.50
66190;DHT22;52992;52.084;5.412;2022-10-16T07:24:03;17.80;63.70
66190;DHT22;52992;52.084;5.412;2022-10-16T07:26:33;17.80;63.80
66190;DHT22;52992;52.084;5.412;2022-10-16T07:29:00;17.80;64.00
66190;DHT22;52992;52.084;5.412;2022-10-16T07:31:27;17.80;64.10
66190;DHT22;52992;52.084;5.412;2022-10-16T07:33:55;17.80;64.20
66190;DHT22;52992;52.084;5.412;2022-10-16T07:36:21;17.80;64.10
66190;DHT22;52992;52.084;5.412;2022-10-16T07:38:48;17.90;64.00
66190;DHT22;52992;52.084;5.412;2022-10-16T07:41:19;18.00;64.70
66190;DHT22;52992;52.084;5.412;2022-10-16T07:43:51;18.10;63.80
66190;DHT22;52992;52.084;5.412;2022-10-16T07:46:20;18.20;63.60
66190;DHT22;52992;52.084;5.412;2022-10-16T07:48:48;18.20;63.40
66190;DHT22;52992;52.084;5.412;2022-10-16T07:51:17;18.30;63.40
66190;DHT22;52992;52.084;5.412;2022-10-16T07:53:45;18.40;63.50
66190;DHT22;52992;52.084;5.412;2022-10-16T07:56:12;18.40;63.50
66190;DHT22;52992;52.084;5.412;2022-10-16T07:58:39;18.30;64.20
66190;DHT22;52992;52.084;5.412;2022-10-16T08:01:08;18.30;63.80
66190;DHT22;52992;52.084;5.412;2022-10-16T08:03:36;18.30;63.80
66190;DHT22;52992;52.084;5.412;2022-10-16T08:06:03;18.20;63.80
66190;DHT22;52992;52.084;5.412;2022-10-16T08:08:31;18.20;63.90
66190;DHT22;52992;52.084;5.412;2022-10-16T08:10:57;18.30;63.80
66190;DHT22;52992;52.084;5.412;2022-10-16T08:13:24;18.30;63.80
66190;DHT22;52992;52.084;5.412;2022-10-16T08:15:54;18.30;63.70
66190;DHT22;52992;52.084;5.412;2022-10-16T08:18:21;18.20;63.70
66190;DHT22;52992;52.084;5.412;2022-10-16T08:20:54;18.20;63.80
66190;DHT22;52992;52.084;5.412;2022-10-16T08:23:21;18.20;63.80
66190;DHT22;52992;52.084;5.412;2022-10-16T08:25:48;18.10;63.80
66190;DHT22;52992;52.084;5.412;2022-10-16T08:28:15;18.10;64.10
66190;DHT22;52992;52.084;5.412;2022-10-16T08:30:43;18.20;64.00
66190;DHT22;52992;52.084;5.412;2022-10-16T08:33:10;18.20;63.90
66190;DHT22;52992;52.084;5.412;2022-10-16T08:35:37;18.30;63.90
66190;DHT22;52992;52.084;5.412;2022-10-16T08:38:04;18.20;63.60
66190;DHT22;52992;52.084;5.412;2022-10-16T08:40:33;18.20;63.70
66190;DHT22;52992;52.084;5.412;2022-10-16T08:43:11;18.30;63.70
66190;DHT22;52992;52.084;5.412;2022-10-16T08:46:18;18.30;63.60
66190;DHT22;52992;52.084;5.412;2022-10-16T08:48:54;18.30;63.60
66190;DHT22;52992;52.084;5.412;2022-10-16T08:51:41;18.50;63.20
66190;DHT22;52992;52.084;5.412;2022-10-16T08:54:31;18.70;63.20
66190;DHT22;52992;52.084;5.412;2022-10-16T08:57:12;18.80;62.50
66190;DHT22;52992;52.084;5.412;2022-10-16T08:59:45;18.80;62.30
66190;DHT22;52992;52.084;5.412;2022-10-16T09:13:23;18.80;62.50
66190;DHT22;52992;52.084;5.412;2022-10-16T09:16:30;18.90;62.70
66190;DHT22;52992;52.084;5.412;2022-10-16T09:21:45;19.00;62.10
66190;DHT22;52992;52.084;5.412;2022-10-16T09:24:15;19.00;62.10
66190;DHT22;52992;52.084;5.412;2022-10-16T09:26:43;19.00;61.80
66190;DHT22;52992;52.084;5.412;2022-10-16T09:29:14;19.00;61.60
66190;DHT22;52992;52.084;5.412;2022-10-16T09:31:42;19.10;62.70
66190;DHT22;52992;52.084;5.412;2022-10-16T09:36:52;19.20;61.70
66190;DHT22;52992;52.084;5.412;2022-10-16T09:39:47;19.30;61.80
66190;DHT22;52992;52.084;5.412;2022-10-16T09:44:54;19.40;61.30
66190;DHT22;52992;52.084;5.412;2022-10-16T09:47:26;19.40;61.30
66190;DHT22;52992;52.084;5.412;2022-10-16T09:50:02;19.50;61.40
66190;DHT22;52992;52.084;5.412;2022-10-16T09:52:33;19.50;61.40
66190;DHT22;52992;52.084;5.412;2022-10-16T09:55:09;19.60;61.20
66190;DHT22;52992;52.084;5.412;2022-10-16T09:57:49;19.70;61.10
66190;DHT22;52992;52.084;5.412;2022-10-16T10:00:17;20.00;60.80
66190;DHT22;52992;52.084;5.412;2022-10-16T10:02:45;20.10;59.30
66190;DHT22;52992;52.084;5.412;2022-10-16T10:05:24;20.10;58.30
66190;DHT22;52992;52.084;5.412;2022-10-16T10:08:02;20.10;58.80
66190;DHT22;52992;52.084;5.412;2022-10-16T10:10:37;20.10;58.90
66190;DHT22;52992;52.084;5.412;2022-10-16T10:13:20;20.10;58.40
66190;DHT22;52992;52.084;5.412;2022-10-16T10:15:48;20.20;58.60
66190;DHT22;52992;52.084;5.412;2022-10-16T10:18:20;20.20;58.40
66190;DHT22;52992;52.084;5.412;2022-10-16T10:21:00;20.10;58.50
66190;DHT22;52992;52.084;5.412;2022-10-16T10:23:28;20.10;58.40
66190;DHT22;52992;52.084;5.412;2022-10-16T10:26:13;20.10;58.60
66190;DHT22;52992;52.084;5.412;2022-10-16T10:28:55;20.10;58.50
66190;DHT22;52992;52.084;5.412;2022-10-16T10:31:36;20.20;58.60
66190;DHT22;52992;52.084;5.412;2022-10-16T10:39:52;20.10;56.90
66190;DHT22;52992;52.084;5.412;2022-10-16T10:45:14;20.00;57.20
66190;DHT22;52992;52.084;5.412;2022-10-16T10:54:14;20.10;57.50
66190;DHT22;52992;52.084;5.412;2022-10-16T11:06:00;20.20;57.00
66190;DHT22;52992;52.084;5.412;2022-10-16T11:11:31;20.30;56.80
66190;DHT22;52992;52.084;5.412;2022-10-16T11:14:11;20.30;56.10
66190;DHT22;52992;52.084;5.412;2022-10-16T11:19:49;20.30;55.70
66190;DHT22;52992;52.084;5.412;2022-10-16T11:22:29;20.40;56.20
66190;DHT22;52992;52.084;5.412;2022-10-16T11:25:23;20.50;55.00
66190;DHT22;52992;52.084;5.412;2022-10-16T11:30:57;20.80;54.60
66190;DHT22;52992;52.084;5.412;2022-10-16T11:33:47;20.70;53.30
66190;DHT22;52992;52.084;5.412;2022-10-16T11:36:20;20.70;52.80
66190;DHT22;52992;52.084;5.412;2022-10-16T11:56:24;20.20;52.10
66190;DHT22;52992;52.084;5.412;2022-10-16T12:01:51;20.50;51.60
66190;DHT22;52992;52.084;5.412;2022-10-16T12:04:22;20.60;51.80
66190;DHT22;52992;52.084;5.412;2022-10-16T12:07:09;20.60;51.50
66190;DHT22;52992;52.084;5.412;2022-10-16T12:09:38;20.60;52.00
66190;DHT22;52992;52.084;5.412;2022-10-16T12:12:28;20.60;52.00
66190;DHT22;52992;52.084;5.412;2022-10-16T12:15:25;20.60;52.20
66190;DHT22;52992;52.084;5.412;2022-10-16T12:18:23;20.60;51.60
66190;DHT22;52992;52.084;5.412;2022-10-16T12:20:57;20.60;51.10
66190;DHT22;52992;52.084;5.412;2022-10-16T12:23:26;20.60;50.60
66190;DHT22;52992;52.084;5.412;2022-10-16T12:25:58;20.60;50.70
66190;DHT22;52992;52.084;5.412;2022-10-16T12:28:32;20.50;50.40
66190;DHT22;52992;52.084;5.412;2022-10-16T12:31:07;20.50;50.00
66190;DHT22;52992;52.084;5.412;2022-10-16T12:33:53;20.40;49.70
66190;DHT22;52992;52.084;5.412;2022-10-16T12:36:32;20.50;50.20
66190;DHT22;52992;52.084;5.412;2022-10-16T12:39:01;20.50;50.40
66190;DHT22;52992;52.084;5.412;2022-10-16T12:41:32;20.50;50.00
66190;DHT22;52992;52.084;5.412;2022-10-16T12:44:00;20.50;49.70
66190;DHT22;52992;52.084;5.412;2022-10-16T12:49:20;20.60;49.50
66190;DHT22;52992;52.084;5.412;2022-10-16T12:51:47;20.50;49.30
66190;DHT22;52992;52.084;5.412;2022-10-16T13:00:13;20.60;49.60
66190;DHT22;52992;52.084;5.412;2022-10-16T13:08:00;20.90;50.80
66190;DHT22;52992;52.084;5.412;2022-10-16T13:13:30;21.10;50.40
66190;DHT22;52992;52.084;5.412;2022-10-16T13:30:02;21.40;49.40
66190;DHT22;52992;52.084;5.412;2022-10-16T13:32:35;21.50;49.20
66190;DHT22;52992;52.084;5.412;2022-10-16T13:35:02;21.50;48.40
66190;DHT22;52992;52.084;5.412;2022-10-16T13:37:30;21.50;48.20
66190;DHT22;52992;52.084;5.412;2022-10-16T13:40:20;21.50;48.40
66190;DHT22;52992;52.084;5.412;2022-10-16T13:42:48;21.50;48.20
66190;DHT22;52992;52.084;5.412;2022-10-16T13:45:23;21.50;48.10
66190;DHT22;52992;52.084;5.412;2022-10-16T13:48:10;21.50;47.30
66190;DHT22;52992;52.084;5.412;2022-10-16T13:50:40;21.50;48.00
66190;DHT22;52992;52.084;5.412;2022-10-16T13:53:12;21.50;48.40
66190;DHT22;52992;52.084;5.412;2022-10-16T13:55:40;21.50;48.40
66190;DHT22;52992;52.084;5.412;2022-10-16T13:58:14;21.60;48.30
66190;DHT22;52992;52.084;5.412;2022-10-16T14:00:54;21.60;49.00
66190;DHT22;52992;52.084;5.412;2022-10-16T14:03:21;21.60;48.60
66190;DHT22;52992;52.084;5.412;2022-10-16T14:05:53;21.60;48.20
66190;DHT22;52992;52.084;5.412;2022-10-16T14:08:22;21.60;48.20
66190;DHT22;52992;52.084;5.412;2022-10-16T14:10:56;21.70;48.10
66190;DHT22;52992;52.084;5.412;2022-10-16T14:13:34;21.70;47.70
66190;DHT22;52992;52.084;5.412;2022-10-16T14:16:07;21.70;47.90
66190;DHT22;52992;52.084;5.412;2022-10-16T14:18:35;21.70;47.20
66190;DHT22;52992;52.084;5.412;2022-10-16T14:21:11;21.70;47.90
66190;DHT22;52992;52.084;5.412;2022-10-16T14:23:41;21.70;47.90
66190;DHT22;52992;52.084;5.412;2022-10-16T14:28:41;21.70;47.70
66190;DHT22;52992;52.084;5.412;2022-10-16T14:31:33;21.70;47.10
66190;DHT22;52992;52.084;5.412;2022-10-16T14:34:03;21.60;47.00
66190;DHT22;52992;52.084;5.412;2022-10-16T14:36:30;21.60;46.80
66190;DHT22;52992;52.084;5.412;2022-10-16T14:39:20;21.60;47.30
66190;DHT22;52992;52.084;5.412;2022-10-16T14:41:49;21.70;48.50
66190;DHT22;52992;52.084;5.412;2022-10-16T14:44:22;21.70;47.90
66190;DHT22;52992;52.084;5.412;2022-10-16T14:46:50;21.70;48.40
66190;DHT22;52992;52.084;5.412;2022-10-16T14:49:19;21.70;48.80
66190;DHT22;52992;52.084;5.412;2022-10-16T14:51:49;21.60;48.20
66190;DHT22;52992;52.084;5.412;2022-10-16T14:54:18;21.60;48.10
66190;DHT22;52992;52.084;5.412;2022-10-16T14:59:16;21.60;49.40
66190;DHT22;52992;52.084;5.412;2022-10-16T15:01:45;21.60;48.90
66190;DHT22;52992;52.084;5.412;2022-10-16T15:04:12;21.60;48.80
66190;DHT22;52992;52.084;5.412;2022-10-16T15:06:40;21.70;48.90
66190;DHT22;52992;52.084;5.412;2022-10-16T15:09:08;21.60;48.30
66190;DHT22;52992;52.084;5.412;2022-10-16T15:11:35;21.60;48.20
66190;DHT22;52992;52.084;5.412;2022-10-16T15:14:02;21.60;49.50
66190;DHT22;52992;52.084;5.412;2022-10-16T15:16:30;21.60;49.90
66190;DHT22;52992;52.084;5.412;2022-10-16T15:18:57;21.60;49.80
66190;DHT22;52992;52.084;5.412;2022-10-16T15:21:27;21.60;50.10
66190;DHT22;52992;52.084;5.412;2022-10-16T15:23:55;21.60;50.60
66190;DHT22;52992;52.084;5.412;2022-10-16T15:26:27;21.60;50.80
66190;DHT22;52992;52.084;5.412;2022-10-16T15:28:54;21.50;49.80
66190;DHT22;52992;52.084;5.412;2022-10-16T15:31:21;21.50;50.30
66190;DHT22;52992;52.084;5.412;2022-10-16T15:33:51;21.40;51.00
66190;DHT22;52992;52.084;5.412;2022-10-16T15:36:27;21.40;51.60
66190;DHT22;52992;52.084;5.412;2022-10-16T15:38:54;21.30;52.00
66190;DHT22;52992;52.084;5.412;2022-10-16T15:41:22;21.20;52.60
66190;DHT22;52992;52.084;5.412;2022-10-16T15:43:49;21.10;53.10
66190;DHT22;52992;52.084;5.412;2022-10-16T15:46:21;21.00;53.40
66190;DHT22;52992;52.084;5.412;2022-10-16T15:48:49;21.00;53.50
66190;DHT22;52992;52.084;5.412;2022-10-16T15:51:17;20.90;53.90
66190;DHT22;52992;52.084;5.412;2022-10-16T15:53:44;20.90;54.20
66190;DHT22;52992;52.084;5.412;2022-10-16T15:56:14;20.90;54.40
66190;DHT22;52992;52.084;5.412;2022-10-16T15:58:42;20.80;54.50
66190;DHT22;52992;52.084;5.412;2022-10-16T16:01:09;20.80;54.70
66190;DHT22;52992;52.084;5.412;2022-10-16T16:03:38;20.80;55.00
66190;DHT22;52992;52.084;5.412;2022-10-16T16:06:08;20.70;55.10
66190;DHT22;52992;52.084;5.412;2022-10-16T16:08:36;20.70;55.20
66190;DHT22;52992;52.084;5.412;2022-10-16T16:11:05;20.80;55.20
66190;DHT22;52992;52.084;5.412;2022-10-16T16:13:32;20.70;55.30
66190;DHT22;52992;52.084;5.412;2022-10-16T16:16:00;20.60;55.40
66190;DHT22;52992;52.084;5.412;2022-10-16T16:18:27;20.60;55.50
66190;DHT22;52992;52.084;5.412;2022-10-16T16:20:55;20.50;55.50
66190;DHT22;52992;52.084;5.412;2022-10-16T16:23:22;20.50;55.60
66190;DHT22;52992;52.084;5.412;2022-10-16T16:26:05;20.50;55.60
66190;DHT22;52992;52.084;5.412;2022-10-16T16:28:32;20.40;55.80
66190;DHT22;52992;52.084;5.412;2022-10-16T16:30:59;20.40;55.90
66190;DHT22;52992;52.084;5.412;2022-10-16T16:33:26;20.40;55.80
66190;DHT22;52992;52.084;5.412;2022-10-16T16:35:58;20.40;56.00
66190;DHT22;52992;52.084;5.412;2022-10-16T16:38:25;20.40;56.20
66190;DHT22;52992;52.084;5.412;2022-10-16T16:40:52;20.30;56.40
66190;DHT22;52992;52.084;5.412;2022-10-16T16:43:26;20.30;56.50
66190;DHT22;52992;52.084;5.412;2022-10-16T16:45:54;20.20;56.70
66190;DHT22;52992;52.084;5.412;2022-10-16T16:48:21;20.20;56.70
66190;DHT22;52992;52.084;5.412;2022-10-16T16:50:48;20.20;56.70
66190;DHT22;52992;52.084;5.412;2022-10-16T16:53:15;20.20;56.70
66190;DHT22;52992;52.084;5.412;2022-10-16T16:55:42;20.20;56.80
66190;DHT22;52992;52.084;5.412;2022-10-16T16:58:08;20.10;56.80
66190;DHT22;52992;52.084;5.412;2022-10-16T17:00:35;20.10;56.80
66190;DHT22;52992;52.084;5.412;2022-10-16T17:03:02;20.00;56.70
66190;DHT22;52992;52.084;5.412;2022-10-16T17:05:29;20.00;56.70
66190;DHT22;52992;52.084;5.412;2022-10-16T17:07:56;20.00;56.80
66190;DHT22;52992;52.084;5.412;2022-10-16T17:10:23;19.90;56.80
66190;DHT22;52992;52.084;5.412;2022-10-16T17:12:49;19.90;57.10
66190;DHT22;52992;52.084;5.412;2022-10-16T17:15:16;19.90;57.20
66190;DHT22;52992;52.084;5.412;2022-10-16T17:17:43;19.80;57.00
66190;DHT22;52992;52.084;5.412;2022-10-16T17:20:10;19.80;57.10
66190;DHT22;52992;52.084;5.412;2022-10-16T17:22:37;19.80;57.10
66190;DHT22;52992;52.084;5.412;2022-10-16T17:25:04;19.80;57.20
66190;DHT22;52992;52.084;5.412;2022-10-16T17:27:34;19.80;57.40
66190;DHT22;52992;52.084;5.412;2022-10-16T17:30:03;19.80;57.50
66190;DHT22;52992;52.084;5.412;2022-10-16T17:32:30;19.80;57.50
66190;DHT22;52992;52.084;5.412;2022-10-16T17:34:57;19.70;57.50
66190;DHT22;52992;52.084;5.412;2022-10-16T17:37:24;19.70;57.60
66190;DHT22;52992;52.084;5.412;2022-10-16T17:39:50;19.70;57.70
66190;DHT22;52992;52.084;5.412;2022-10-16T17:42:18;19.60;57.60
66190;DHT22;52992;52.084;5.412;2022-10-16T17:44:44;19.60;57.80
66190;DHT22;52992;52.084;5.412;2022-10-16T17:47:11;19.60;57.80
66190;DHT22;52992;52.084;5.412;2022-10-16T17:49:38;19.60;57.80
66190;DHT22;52992;52.084;5.412;2022-10-16T17:52:05;19.60;57.70
66190;DHT22;52992;52.084;5.412;2022-10-16T17:54:32;19.60;58.30
66190;DHT22;52992;52.084;5.412;2022-10-16T17:56:58;19.60;57.60